Ridott, Illinois
Current Conditions -  °F | °C
As of 9:35 PM on Wednesday 22 Oct 2014 (Local Time) from KFEP Reporting Station
Clear Clear  
Wind Chill: 35°   Ceiling: Unl
Heat Index: 39°   Visibility: 10mi
Dew Point: 33°   Wind: 5mph
Humidity: 81%   Direction: 160°SSE
Pressure: 30.27"   Gusts: NA
Location:  42.3°N, 89.48°W
Report Text: KFEP 230235Z AUTO 16004KT 10SM CLR 04/01 A3027 RMK AO2 T00380008
Loading
Personal Weather Stations






























Interactive Weather Map
Tropical Storm Tracking
New forecast layout! Learn more

10-Day Weather Forecast

Advertisements
Track Severe Weather on mobile